createdAt,value
2019-06-27T00:02:15.853Z,397.47
2019-06-27T00:04:46.853Z,403.20
2019-06-27T00:07:17.797Z,400.63
2019-06-27T00:09:49.164Z,396.13
2019-06-27T00:12:20.810Z,390.80
2019-06-27T00:14:52.176Z,391.80
2019-06-27T00:17:23.291Z,393.87
2019-06-27T00:19:54.964Z,391.30
2019-06-27T00:22:25.960Z,389.53
2019-06-27T00:24:57.085Z,392.40
2019-06-27T00:27:28.105Z,394.57
2019-06-27T00:29:59.127Z,389.50
2019-06-27T00:32:30.078Z,397.50
2019-06-27T00:35:01.162Z,390.30
2019-06-27T00:37:32.538Z,393.40
2019-06-27T00:40:03.530Z,406.00
2019-06-27T00:42:34.605Z,398.63
2019-06-27T00:45:06.488Z,401.87
2019-06-27T00:47:37.532Z,393.60
2019-06-27T00:50:09.699Z,394.43
2019-06-27T00:52:41.027Z,396.63
2019-06-27T00:55:12.771Z,399.43
2019-06-27T00:57:43.982Z,396.70
2019-06-27T01:00:16.854Z,397.07
2019-06-27T01:02:48.319Z,395.07
2019-06-27T01:05:19.695Z,395.30
2019-06-27T01:07:51.093Z,399.80
2019-06-27T01:10:22.745Z,383.03
2019-06-27T01:12:54.074Z,374.90
2019-06-27T01:15:25.262Z,381.03
2019-06-27T01:17:56.305Z,381.97
2019-06-27T01:20:27.785Z,376.40
2019-06-27T01:22:59.270Z,386.57
2019-06-27T01:25:31.126Z,386.37
2019-06-27T01:28:03.046Z,383.10
2019-06-27T01:30:34.075Z,380.53
2019-06-27T01:33:05.270Z,379.37
2019-06-27T01:35:37.214Z,384.77
2019-06-27T01:38:08.460Z,367.60
2019-06-27T01:40:39.986Z,371.90
2019-06-27T01:43:11.173Z,372.67
2019-06-27T01:45:47.877Z,374.30
2019-06-27T01:48:19.019Z,369.30
2019-06-27T01:50:50.495Z,367.00
2019-06-27T01:53:22.162Z,366.97
2019-06-27T01:55:53.793Z,364.23
2019-06-27T01:58:24.775Z,357.80
2019-06-27T02:00:56.577Z,358.73
2019-06-27T02:03:28.099Z,358.50
2019-06-27T02:05:59.850Z,358.23
2019-06-27T02:08:31.446Z,353.20
2019-06-27T02:11:03.115Z,349.93
2019-06-27T02:13:34.831Z,351.13
2019-06-27T02:16:06.368Z,349.17
2019-06-27T02:18:38.655Z,349.87
2019-06-27T02:21:09.889Z,344.80
2019-06-27T02:23:40.950Z,344.37
2019-06-27T02:26:12.268Z,344.83
2019-06-27T02:28:43.514Z,342.47
2019-06-27T02:31:14.714Z,345.40
2019-06-27T02:33:45.781Z,343.63
2019-06-27T02:36:16.662Z,341.67
2019-06-27T02:38:47.572Z,340.03
2019-06-27T02:41:18.618Z,341.27
2019-06-27T02:43:49.462Z,342.60
2019-06-27T02:46:21.661Z,340.77
2019-06-27T02:48:53.517Z,335.53
2019-06-27T02:51:25.121Z,334.67
2019-06-27T02:53:56.576Z,335.03
2019-06-27T02:56:27.595Z,336.17
2019-06-27T02:58:59.076Z,337.63
2019-06-27T03:01:30.250Z,333.97
2019-06-27T03:04:02.260Z,334.57
2019-06-27T03:06:33.468Z,334.87
2019-06-27T03:09:05.467Z,336.30
2019-06-27T03:11:36.684Z,329.77
2019-06-27T03:14:07.787Z,332.73
2019-06-27T03:16:39.105Z,333.10
2019-06-27T03:19:10.422Z,336.03
2019-06-27T03:21:41.738Z,334.77
2019-06-27T03:24:12.868Z,342.17
2019-06-27T03:26:44.143Z,338.30
2019-06-27T03:29:19.909Z,335.70
2019-06-27T03:31:48.073Z,336.73
2019-06-27T03:34:19.286Z,339.83
2019-06-27T03:36:50.512Z,340.27
2019-06-27T03:39:21.679Z,342.70
2019-06-27T03:41:53.429Z,346.43
2019-06-27T03:44:24.614Z,344.50
2019-06-27T03:46:55.746Z,339.77
2019-06-27T03:49:26.732Z,346.63
2019-06-27T03:51:57.985Z,345.13
2019-06-27T03:54:29.106Z,346.10
2019-06-27T03:57:00.187Z,340.47
2019-06-27T03:59:31.423Z,346.77
2019-06-27T04:02:02.446Z,343.57
2019-06-27T04:04:33.642Z,343.40
2019-06-27T04:07:04.963Z,341.73
2019-06-27T04:09:36.189Z,348.30
2019-06-27T04:12:07.339Z,348.27
2019-06-27T04:14:38.280Z,361.87
2019-06-27T04:17:09.847Z,353.13
2019-06-27T04:19:41.117Z,351.77
2019-06-27T04:22:17.110Z,350.30
2019-06-27T04:24:45.339Z,352.50
2019-06-27T04:27:16.602Z,349.27
2019-06-27T04:29:47.946Z,349.17
2019-06-27T04:32:19.207Z,347.73
2019-06-27T04:34:50.041Z,352.60
2019-06-27T04:37:21.186Z,355.30
2019-06-27T04:39:52.041Z,364.30
2019-06-27T04:42:23.057Z,374.40
2019-06-27T04:44:54.442Z,376.30
2019-06-27T04:47:25.805Z,378.47
2019-06-27T04:49:56.735Z,391.77
2019-06-27T04:52:28.170Z,389.77
2019-06-27T04:55:03.153Z,401.93
2019-06-27T04:57:32.546Z,403.93
2019-06-27T05:00:03.981Z,411.97
2019-06-27T05:02:35.432Z,423.30
2019-06-27T05:05:06.918Z,430.93
2019-06-27T05:07:39.339Z,439.33
2019-06-27T05:10:10.581Z,449.53
2019-06-27T05:12:41.925Z,451.40
2019-06-27T05:15:13.135Z,457.97
2019-06-27T05:17:44.271Z,459.40
2019-06-27T05:20:15.465Z,463.60
2019-06-27T05:22:46.691Z,474.90
2019-06-27T05:25:17.994Z,487.03
2019-06-27T05:27:49.461Z,506.67
2019-06-27T05:30:20.632Z,517.50
2019-06-27T05:32:51.936Z,540.57
2019-06-27T05:35:23.379Z,572.37
2019-06-27T05:37:54.852Z,592.93
2019-06-27T05:40:26.222Z,603.93
2019-06-27T05:42:57.269Z,639.83
2019-06-27T05:45:28.528Z,593.53
2019-06-27T05:47:59.650Z,594.60
2019-06-27T05:50:30.849Z,607.10
2019-06-27T05:53:02.149Z,638.60
2019-06-27T05:55:33.332Z,663.93
2019-06-27T05:58:05.398Z,680.47
2019-06-27T06:00:36.576Z,676.33
2019-06-27T06:03:07.993Z,694.23
2019-06-27T06:05:39.073Z,708.53
2019-06-27T06:08:10.199Z,723.47
2019-06-27T06:10:41.531Z,740.47
2019-06-27T06:13:12.687Z,750.27
2019-06-27T06:15:43.830Z,767.03
2019-06-27T06:18:15.399Z,778.63
2019-06-27T06:20:46.597Z,767.93
2019-06-27T06:23:18.084Z,749.23
2019-06-27T06:25:49.172Z,758.67
2019-06-27T06:28:20.328Z,775.33
2019-06-27T06:30:51.503Z,785.13
2019-06-27T06:33:22.554Z,768.43
2019-06-27T06:35:53.603Z,779.77
2019-06-27T06:38:25.012Z,767.63
2019-06-27T06:40:56.288Z,754.33
2019-06-27T06:43:27.527Z,734.83
2019-06-27T06:45:58.429Z,740.03
2019-06-27T06:48:29.799Z,730.73
2019-06-27T06:51:00.981Z,739.70
2019-06-27T06:53:32.454Z,765.83
2019-06-27T06:56:03.638Z,795.40
2019-06-27T06:58:34.936Z,792.33
2019-06-27T07:01:05.953Z,793.37
2019-06-27T07:03:36.959Z,792.30
2019-06-27T07:06:08.083Z,792.27
2019-06-27T07:08:39.195Z,818.60
2019-06-27T07:11:11.446Z,825.80
2019-06-27T07:13:42.617Z,850.33
2019-06-27T07:16:13.518Z,827.33
2019-06-27T07:18:44.759Z,815.07
2019-06-27T07:21:16.016Z,812.23
2019-06-27T07:23:47.421Z,839.60
2019-06-27T07:26:22.067Z,855.87
2019-06-27T07:28:51.948Z,856.23
2019-06-27T07:31:23.523Z,843.93
2019-06-27T07:33:55.012Z,824.73
2019-06-27T07:36:26.608Z,820.07
2019-06-27T07:38:57.958Z,822.10
2019-06-27T07:41:29.776Z,823.27
2019-06-27T07:44:01.331Z,817.77
2019-06-27T07:46:32.707Z,816.87
2019-06-27T07:49:04.394Z,810.53
2019-06-27T07:51:36.357Z,814.17
2019-06-27T07:54:08.117Z,814.80
2019-06-27T07:56:39.344Z,807.43
2019-06-27T07:59:10.957Z,828.67
2019-06-27T08:01:42.466Z,806.03
2019-06-27T08:04:13.603Z,807.93
2019-06-27T08:06:44.525Z,825.30
2019-06-27T08:09:15.604Z,836.23
2019-06-27T08:11:47.016Z,851.87
2019-06-27T08:14:18.171Z,855.37
2019-06-27T08:16:49.740Z,860.90
2019-06-27T08:19:21.367Z,862.70
2019-06-27T08:21:52.541Z,867.07
2019-06-27T08:24:24.316Z,869.50
2019-06-27T08:26:55.540Z,862.70
2019-06-27T08:29:26.629Z,860.93
2019-06-27T08:31:57.745Z,869.80
2019-06-27T08:34:28.888Z,859.23
2019-06-27T08:37:00.100Z,855.77
2019-06-27T08:39:31.504Z,864.50
2019-06-27T08:42:02.411Z,881.97
2019-06-27T08:44:33.567Z,876.03
2019-06-27T08:47:04.544Z,872.47
2019-06-27T08:49:36.192Z,867.23
2019-06-27T08:52:07.657Z,857.03
2019-06-27T08:54:38.901Z,857.13
2019-06-27T08:57:10.045Z,870.90
2019-06-27T08:59:41.061Z,875.63
2019-06-27T09:02:11.967Z,876.33
2019-06-27T09:04:43.502Z,883.13
2019-06-27T09:07:14.763Z,871.53
2019-06-27T09:09:45.832Z,871.00
2019-06-27T09:12:17.166Z,867.80
2019-06-27T09:14:48.390Z,874.83
2019-06-27T09:17:19.390Z,878.77
2019-06-27T09:19:50.328Z,899.60
2019-06-27T09:22:21.454Z,912.57
2019-06-27T09:24:52.836Z,916.33
2019-06-27T09:27:23.892Z,914.17
2019-06-27T09:29:54.884Z,902.67
2019-06-27T09:32:26.529Z,898.07
2019-06-27T09:34:57.595Z,903.90
2019-06-27T09:37:29.960Z,915.40
2019-06-27T09:40:01.300Z,907.27
2019-06-27T09:42:32.363Z,895.50
2019-06-27T09:45:03.869Z,895.67
2019-06-27T09:47:34.856Z,894.03
2019-06-27T09:50:06.183Z,902.17
2019-06-27T09:52:37.101Z,907.60
2019-06-27T09:55:09.565Z,904.43
2019-06-27T09:57:40.653Z,898.17
2019-06-27T10:00:12.803Z,913.73
2019-06-27T10:02:43.698Z,910.40
2019-06-27T10:05:15.363Z,915.13
2019-06-27T10:07:46.317Z,903.03
2019-06-27T10:10:17.799Z,889.97
2019-06-27T10:12:48.919Z,884.50
2019-06-27T10:15:20.446Z,898.77
2019-06-27T10:17:51.730Z,909.43
2019-06-27T10:20:23.071Z,905.83
2019-06-27T10:22:54.337Z,902.83
2019-06-27T10:25:25.896Z,913.90
2019-06-27T10:27:57.005Z,908.83
2019-06-27T10:30:28.289Z,923.47
2019-06-27T10:33:00.504Z,912.03
2019-06-27T10:35:32.029Z,911.73
2019-06-27T10:38:03.212Z,925.53
2019-06-27T10:40:34.635Z,927.03
2019-06-27T10:43:05.754Z,927.10
2019-06-27T10:45:36.964Z,942.83
2019-06-27T10:48:07.904Z,935.30
2019-06-27T10:50:39.100Z,921.27
2019-06-27T10:53:10.413Z,935.67
2019-06-27T10:55:42.107Z,940.63
2019-06-27T10:58:13.236Z,928.80
2019-06-27T11:00:44.457Z,919.03
2019-06-27T11:03:16.536Z,926.60
2019-06-27T11:05:48.037Z,930.63
2019-06-27T11:08:19.482Z,938.17
2019-06-27T11:10:50.948Z,927.00
2019-06-27T11:13:23.122Z,930.80
2019-06-27T11:15:54.690Z,927.17
2019-06-27T11:18:25.802Z,926.87
2019-06-27T11:20:56.929Z,933.53
2019-06-27T11:23:27.966Z,939.30
2019-06-27T11:25:58.998Z,949.33
2019-06-27T11:28:30.229Z,943.10
2019-06-27T11:31:01.357Z,937.20
2019-06-27T11:33:33.320Z,936.07
2019-06-27T11:36:04.549Z,916.57
2019-06-27T11:38:35.862Z,907.60
2019-06-27T11:41:07.455Z,899.20
2019-06-27T11:43:38.922Z,889.43
2019-06-27T11:46:10.263Z,893.70
2019-06-27T11:48:41.238Z,895.07
2019-06-27T11:51:12.701Z,891.80
2019-06-27T11:53:44.370Z,888.00
2019-06-27T11:56:16.160Z,886.10
2019-06-27T11:58:47.547Z,884.50
2019-06-27T12:01:19.379Z,887.83
2019-06-27T12:03:50.991Z,887.60
2019-06-27T12:06:22.425Z,897.07
2019-06-27T12:08:53.408Z,890.40
2019-06-27T12:11:24.412Z,894.93
2019-06-27T12:13:55.667Z,884.13
2019-06-27T12:16:27.114Z,885.97
2019-06-27T12:18:58.443Z,895.80
2019-06-27T12:21:29.525Z,895.37
2019-06-27T12:24:00.748Z,907.53
2019-06-27T12:26:32.318Z,900.03
2019-06-27T12:29:03.765Z,896.50
2019-06-27T12:31:35.190Z,899.60
2019-06-27T12:34:07.721Z,896.00
2019-06-27T12:36:39.980Z,900.50
2019-06-27T12:39:11.125Z,886.70
2019-06-27T12:41:42.338Z,883.33
2019-06-27T12:44:13.496Z,891.60
2019-06-27T12:46:44.938Z,887.73
2019-06-27T12:49:16.144Z,895.17
2019-06-27T12:51:48.688Z,890.57
2019-06-27T12:54:20.127Z,884.53
2019-06-27T12:56:51.589Z,887.93
2019-06-27T12:59:22.990Z,880.27
2019-06-27T13:01:55.269Z,889.77
2019-06-27T13:04:26.459Z,882.53
2019-06-27T13:06:58.660Z,885.47
2019-06-27T13:09:29.753Z,886.77
2019-06-27T13:12:00.916Z,885.37
2019-06-27T13:14:31.831Z,878.87
2019-06-27T13:17:03.305Z,872.27
2019-06-27T13:19:34.731Z,872.07
2019-06-27T13:22:05.778Z,876.77
2019-06-27T13:24:36.933Z,878.30
2019-06-27T13:27:08.150Z,874.77
2019-06-27T13:29:39.598Z,867.77
2019-06-27T13:32:10.891Z,870.17
2019-06-27T13:34:43.664Z,874.07
2019-06-27T13:37:14.761Z,873.13
2019-06-27T13:39:45.850Z,868.10
2019-06-27T13:42:16.879Z,857.77
2019-06-27T13:44:47.896Z,855.03
2019-06-27T13:47:20.328Z,848.13
2019-06-27T13:49:51.281Z,853.37
2019-06-27T13:52:22.323Z,849.90
2019-06-27T13:54:53.281Z,856.93
2019-06-27T13:57:24.399Z,859.87
2019-06-27T13:59:55.460Z,858.27
2019-06-27T14:02:26.437Z,868.37
2019-06-27T14:04:58.031Z,868.57
2019-06-27T14:07:29.153Z,866.97
2019-06-27T14:10:00.168Z,865.73
2019-06-27T14:12:31.805Z,874.17
2019-06-27T14:15:02.665Z,874.37
2019-06-27T14:17:33.903Z,880.83
2019-06-27T14:20:05.439Z,878.93
2019-06-27T14:22:37.109Z,874.47
2019-06-27T14:25:08.175Z,877.17
2019-06-27T14:27:39.210Z,901.50
2019-06-27T14:30:10.763Z,881.37
2019-06-27T14:32:42.047Z,877.87
2019-06-27T14:35:15.727Z,872.13
2019-06-27T14:37:50.352Z,870.53
2019-06-27T14:40:21.578Z,867.43
2019-06-27T14:42:52.629Z,871.60
2019-06-27T14:45:25.057Z,869.83
2019-06-27T14:47:56.601Z,867.63
2019-06-27T14:50:28.291Z,867.73
2019-06-27T14:53:00.149Z,871.33
2019-06-27T14:55:31.717Z,872.83
2019-06-27T14:58:03.033Z,863.40
2019-06-27T15:00:34.262Z,866.20
2019-06-27T15:03:05.429Z,875.50
2019-06-27T15:05:36.463Z,866.87
2019-06-27T15:08:07.584Z,875.43
2019-06-27T15:10:38.456Z,874.30
2019-06-27T15:13:09.759Z,873.63
2019-06-27T15:15:40.983Z,878.03
2019-06-27T15:18:12.214Z,874.33
2019-06-27T15:20:43.311Z,879.83
2019-06-27T15:23:14.569Z,883.17
2019-06-27T15:25:45.448Z,883.60
2019-06-27T15:28:16.505Z,888.30
2019-06-27T15:30:47.840Z,879.17
2019-06-27T15:33:19.104Z,878.13
2019-06-27T15:35:52.260Z,881.60
2019-06-27T15:38:23.106Z,875.93
2019-06-27T15:40:55.559Z,884.60
2019-06-27T15:43:27.260Z,871.00
2019-06-27T15:45:58.288Z,881.80
2019-06-27T15:48:29.238Z,879.00
2019-06-27T15:51:00.511Z,882.03
2019-06-27T15:53:31.781Z,878.57
2019-06-27T15:56:02.686Z,884.80
2019-06-27T15:58:33.954Z,873.20
2019-06-27T16:01:05.038Z,868.60
2019-06-27T16:03:36.319Z,870.83
2019-06-27T16:06:09.710Z,855.93
2019-06-27T16:08:40.410Z,857.70
2019-06-27T16:11:13.971Z,867.23
2019-06-27T16:13:45.191Z,864.40
2019-06-27T16:16:16.117Z,859.93
2019-06-27T16:18:47.351Z,862.57
2019-06-27T16:21:18.694Z,853.07
2019-06-27T16:23:50.189Z,856.23
2019-06-27T16:26:21.187Z,862.73
2019-06-27T16:28:54.295Z,858.73
2019-06-27T16:31:25.513Z,851.73
2019-06-27T16:33:56.843Z,855.07
2019-06-27T16:36:29.268Z,854.90
2019-06-27T16:39:00.456Z,855.13
2019-06-27T16:41:33.108Z,851.13
2019-06-27T16:44:04.699Z,850.47
2019-06-27T16:46:35.845Z,844.00
2019-06-27T16:49:07.155Z,845.90
2019-06-27T16:51:38.443Z,843.87
2019-06-27T16:54:09.657Z,844.93
2019-06-27T16:56:40.971Z,834.10
2019-06-27T16:59:12.544Z,838.17
2019-06-27T17:01:43.621Z,839.70
2019-06-27T17:04:14.674Z,836.90
2019-06-27T17:06:45.913Z,834.43
2019-06-27T17:09:17.258Z,835.63
2019-06-27T17:11:48.474Z,825.57
2019-06-27T17:14:19.849Z,832.93
2019-06-27T17:16:51.068Z,824.67
2019-06-27T17:19:22.266Z,820.10
2019-06-27T17:21:53.376Z,820.27
2019-06-27T17:24:24.376Z,828.03
2019-06-27T17:26:55.553Z,820.63
2019-06-27T17:29:26.883Z,821.50
2019-06-27T17:31:57.957Z,817.03
2019-06-27T17:34:28.822Z,819.00
2019-06-27T17:36:59.741Z,813.73
2019-06-27T17:39:30.934Z,809.43
2019-06-27T17:42:01.851Z,810.27
2019-06-27T17:44:32.803Z,808.90
2019-06-27T17:47:03.720Z,812.80
2019-06-27T17:49:34.820Z,805.43
2019-06-27T17:52:06.098Z,802.17
2019-06-27T17:54:38.540Z,803.60
2019-06-27T17:57:09.753Z,800.57
2019-06-27T17:59:41.310Z,797.47
2019-06-27T18:02:12.455Z,791.27
2019-06-27T18:04:46.107Z,789.93
2019-06-27T18:07:17.545Z,787.17
2019-06-27T18:09:49.256Z,786.07
2019-06-27T18:12:21.934Z,780.20
2019-06-27T18:14:53.324Z,776.03
2019-06-27T18:17:32.857Z,776.33
2019-06-27T18:19:57.540Z,767.20
2019-06-27T18:22:28.568Z,763.20
2019-06-27T18:24:59.817Z,771.03
2019-06-27T18:27:31.005Z,753.33
2019-06-27T18:30:02.019Z,754.07
2019-06-27T18:32:34.039Z,746.23
2019-06-27T18:35:05.667Z,741.47
2019-06-27T18:37:36.845Z,743.87
2019-06-27T18:40:08.283Z,741.53
2019-06-27T18:42:39.307Z,737.00
2019-06-27T18:45:10.631Z,731.77
2019-06-27T18:47:41.610Z,737.07
2019-06-27T18:50:12.927Z,728.37
2019-06-27T18:52:43.835Z,723.73
2019-06-27T18:55:15.112Z,720.03
2019-06-27T18:57:46.093Z,715.63
2019-06-27T19:00:17.726Z,714.67
2019-06-27T19:02:49.187Z,704.50
2019-06-27T19:05:20.253Z,708.30
2019-06-27T19:07:51.456Z,704.70
2019-06-27T19:10:23.036Z,700.80
2019-06-27T19:12:54.269Z,694.87
2019-06-27T19:15:25.234Z,689.10
2019-06-27T19:17:56.119Z,689.63
2019-06-27T19:20:41.748Z,684.93
2019-06-27T19:23:49.741Z,667.60
2019-06-27T19:26:20.842Z,660.40
2019-06-27T19:28:51.880Z,653.33
2019-06-27T19:31:22.938Z,654.90
2019-06-27T19:33:54.135Z,648.10
2019-06-27T19:36:25.076Z,642.37
2019-06-27T19:38:57.201Z,642.97
2019-06-27T19:41:28.293Z,626.70
2019-06-27T19:43:59.531Z,626.47
2019-06-27T19:46:30.965Z,624.37
2019-06-27T19:49:02.098Z,616.00
2019-06-27T19:51:33.503Z,618.97
2019-06-27T19:54:04.836Z,604.27
2019-06-27T19:56:36.455Z,609.77
2019-06-27T19:59:07.635Z,606.63
2019-06-27T20:01:38.894Z,603.97
2019-06-27T20:04:10.235Z,599.93
2019-06-27T20:06:41.136Z,595.57
2019-06-27T20:09:12.146Z,590.73
2019-06-27T20:11:43.225Z,594.63
2019-06-27T20:14:14.385Z,594.33
2019-06-27T20:16:45.426Z,590.60
2019-06-27T20:19:16.730Z,577.90
2019-06-27T20:21:47.977Z,577.50
2019-06-27T20:24:21.756Z,578.93
2019-06-27T20:26:51.792Z,579.63
2019-06-27T20:29:22.873Z,576.17
2019-06-27T20:31:56.282Z,569.63
2019-06-27T20:34:27.377Z,571.67
2019-06-27T20:36:58.599Z,576.50
2019-06-27T20:39:29.712Z,577.77
2019-06-27T20:42:00.785Z,584.57
2019-06-27T20:44:31.796Z,580.30
2019-06-27T20:47:02.876Z,577.50
2019-06-27T20:49:33.754Z,576.77
2019-06-27T20:52:05.131Z,575.27
2019-06-27T20:54:36.024Z,582.30
2019-06-27T20:57:07.355Z,576.10
2019-06-27T20:59:38.495Z,580.60
2019-06-27T21:02:09.743Z,568.33
2019-06-27T21:04:41.787Z,575.27
2019-06-27T21:07:12.685Z,582.03
2019-06-27T21:09:43.802Z,568.10
2019-06-27T21:12:15.196Z,579.57
2019-06-27T21:14:46.279Z,570.57
2019-06-27T21:17:17.495Z,564.73
2019-06-27T21:19:48.639Z,568.90
2019-06-27T21:22:19.676Z,566.47
2019-06-27T21:24:51.694Z,565.43
2019-06-27T21:27:22.803Z,589.73
2019-06-27T21:29:53.768Z,561.60
2019-06-27T21:32:31.490Z,569.13
2019-06-27T21:34:57.620Z,556.90
2019-06-27T21:37:28.650Z,561.13
2019-06-27T21:39:59.586Z,554.93
2019-06-27T21:42:30.834Z,559.37
2019-06-27T21:45:02.109Z,559.23
2019-06-27T21:47:34.266Z,550.50
2019-06-27T21:50:05.407Z,551.50
2019-06-27T21:52:36.380Z,554.20
2019-06-27T21:55:07.688Z,552.20
2019-06-27T21:57:38.863Z,549.57
2019-06-27T22:00:10.444Z,551.40
2019-06-27T22:02:43.482Z,548.63
2019-06-27T22:05:15.496Z,542.57
2019-06-27T22:07:46.757Z,545.13
2019-06-27T22:10:18.047Z,550.70
2019-06-27T22:12:49.676Z,548.47
2019-06-27T22:15:20.880Z,540.73
2019-06-27T22:17:52.572Z,537.10
2019-06-27T22:20:24.009Z,540.57
2019-06-27T22:22:55.682Z,530.97
2019-06-27T22:25:39.896Z,526.93
2019-06-27T22:28:00.234Z,525.60
2019-06-27T22:30:31.507Z,517.57
2019-06-27T22:33:02.926Z,514.87
2019-06-27T22:35:34.192Z,508.13
2019-06-27T22:38:22.927Z,510.40
2019-06-27T22:41:11.272Z,495.30
2019-06-27T22:44:00.111Z,499.93
2019-06-27T22:46:48.891Z,493.90
2019-06-27T22:49:18.919Z,487.83
2019-06-27T22:52:27.353Z,487.87
2019-06-27T22:55:00.199Z,486.27
2019-06-27T22:57:31.589Z,486.13
2019-06-27T23:00:03.606Z,490.07
2019-06-27T23:02:36.152Z,488.13
2019-06-27T23:05:07.754Z,494.93
2019-06-27T23:07:38.588Z,497.97
2019-06-27T23:10:09.808Z,508.60
2019-06-27T23:12:40.930Z,502.57
2019-06-27T23:15:12.108Z,509.07
2019-06-27T23:17:43.997Z,506.67
2019-06-27T23:20:15.469Z,500.77
2019-06-27T23:22:46.677Z,507.10
2019-06-27T23:25:17.802Z,507.27
2019-06-27T23:27:48.950Z,501.10
2019-06-27T23:30:20.528Z,503.50
2019-06-27T23:32:51.730Z,507.70
2019-06-27T23:35:23.064Z,508.27
2019-06-27T23:37:53.946Z,515.20
2019-06-27T23:40:24.964Z,516.30
2019-06-27T23:42:56.053Z,518.93
2019-06-27T23:45:27.179Z,519.67
2019-06-27T23:47:59.065Z,521.23
2019-06-27T23:50:30.246Z,523.33
2019-06-27T23:53:02.366Z,525.50
2019-06-27T23:55:33.516Z,520.03
2019-06-27T23:58:04.691Z,521.17
